sensor_id;sensor_type;location;lat;lon;timestamp;P1;durP1;ratioP1;P2;durP2;ratioP2
6517;SDS011;3292;48.944;9.240;2024-01-06T00:01:54;8.37;;;6.73;;
6517;SDS011;3292;48.944;9.240;2024-01-06T00:04:21;12.20;;;9.43;;
6517;SDS011;3292;48.944;9.240;2024-01-06T00:06:48;15.93;;;10.67;;
6517;SDS011;3292;48.944;9.240;2024-01-06T00:09:15;17.57;;;13.03;;
6517;SDS011;3292;48.944;9.240;2024-01-06T00:11:41;18.10;;;13.87;;
6517;SDS011;3292;48.944;9.240;2024-01-06T00:14:10;19.27;;;13.67;;
6517;SDS011;3292;48.944;9.240;2024-01-06T00:16:36;14.30;;;11.37;;
6517;SDS011;3292;48.944;9.240;2024-01-06T00:19:03;14.30;;;9.70;;
6517;SDS011;3292;48.944;9.240;2024-01-06T00:21:30;12.00;;;9.03;;
6517;SDS011;3292;48.944;9.240;2024-01-06T00:23:57;11.43;;;8.37;;
6517;SDS011;3292;48.944;9.240;2024-01-06T00:26:24;12.70;;;8.57;;
6517;SDS011;3292;48.944;9.240;2024-01-06T00:28:50;18.00;;;12.70;;
6517;SDS011;3292;48.944;9.240;2024-01-06T00:31:18;18.40;;;12.77;;
6517;SDS011;3292;48.944;9.240;2024-01-06T00:33:45;16.83;;;12.80;;
6517;SDS011;3292;48.944;9.240;2024-01-06T00:36:12;16.97;;;13.10;;
6517;SDS011;3292;48.944;9.240;2024-01-06T00:38:39;16.70;;;12.27;;
6517;SDS011;3292;48.944;9.240;2024-01-06T00:41:06;18.53;;;13.00;;
6517;SDS011;3292;48.944;9.240;2024-01-06T00:43:32;13.63;;;12.07;;
6517;SDS011;3292;48.944;9.240;2024-01-06T00:45:59;14.93;;;12.63;;
6517;SDS011;3292;48.944;9.240;2024-01-06T00:48:27;16.63;;;12.10;;
6517;SDS011;3292;48.944;9.240;2024-01-06T00:50:54;15.83;;;11.63;;
6517;SDS011;3292;48.944;9.240;2024-01-06T00:53:21;11.97;;;10.37;;
6517;SDS011;3292;48.944;9.240;2024-01-06T00:55:48;17.90;;;11.17;;
6517;SDS011;3292;48.944;9.240;2024-01-06T00:58:15;13.00;;;10.47;;
6517;SDS011;3292;48.944;9.240;2024-01-06T01:00:41;12.60;;;9.87;;
6517;SDS011;3292;48.944;9.240;2024-01-06T01:03:08;12.03;;;9.90;;
6517;SDS011;3292;48.944;9.240;2024-01-06T01:05:36;14.33;;;10.60;;
6517;SDS011;3292;48.944;9.240;2024-01-06T01:08:03;12.83;;;9.93;;
6517;SDS011;3292;48.944;9.240;2024-01-06T01:10:31;7.93;;;6.37;;
6517;SDS011;3292;48.944;9.240;2024-01-06T01:12:58;8.53;;;5.80;;
6517;SDS011;3292;48.944;9.240;2024-01-06T01:15:24;8.20;;;5.97;;
6517;SDS011;3292;48.944;9.240;2024-01-06T01:17:51;8.83;;;5.30;;
6517;SDS011;3292;48.944;9.240;2024-01-06T01:20:18;6.47;;;5.37;;
6517;SDS011;3292;48.944;9.240;2024-01-06T01:22:46;9.00;;;5.77;;
6517;SDS011;3292;48.944;9.240;2024-01-06T01:25:13;8.53;;;5.17;;
6517;SDS011;3292;48.944;9.240;2024-01-06T01:27:40;7.17;;;5.23;;
6517;SDS011;3292;48.944;9.240;2024-01-06T01:30:07;7.87;;;5.33;;
6517;SDS011;3292;48.944;9.240;2024-01-06T01:32:34;7.97;;;4.80;;
6517;SDS011;3292;48.944;9.240;2024-01-06T01:35:01;7.53;;;5.17;;
6517;SDS011;3292;48.944;9.240;2024-01-06T01:37:28;6.90;;;5.47;;
6517;SDS011;3292;48.944;9.240;2024-01-06T01:39:56;9.97;;;5.00;;
6517;SDS011;3292;48.944;9.240;2024-01-06T01:42:23;6.63;;;5.07;;
6517;SDS011;3292;48.944;9.240;2024-01-06T01:44:50;6.87;;;4.87;;
6517;SDS011;3292;48.944;9.240;2024-01-06T01:47:16;7.53;;;4.53;;
6517;SDS011;3292;48.944;9.240;2024-01-06T01:49:43;5.37;;;4.43;;
6517;SDS011;3292;48.944;9.240;2024-01-06T01:52:11;5.57;;;4.23;;
6517;SDS011;3292;48.944;9.240;2024-01-06T01:54:39;7.03;;;4.20;;
6517;SDS011;3292;48.944;9.240;2024-01-06T01:57:08;8.00;;;4.30;;
6517;SDS011;3292;48.944;9.240;2024-01-06T01:59:36;5.57;;;3.90;;
6517;SDS011;3292;48.944;9.240;2024-01-06T02:02:03;6.97;;;3.63;;
6517;SDS011;3292;48.944;9.240;2024-01-06T02:04:30;6.03;;;3.87;;
6517;SDS011;3292;48.944;9.240;2024-01-06T02:06:57;7.60;;;4.00;;
6517;SDS011;3292;48.944;9.240;2024-01-06T02:09:24;4.67;;;3.43;;
6517;SDS011;3292;48.944;9.240;2024-01-06T02:11:54;6.80;;;3.70;;
6517;SDS011;3292;48.944;9.240;2024-01-06T02:14:22;5.10;;;3.53;;
6517;SDS011;3292;48.944;9.240;2024-01-06T02:16:49;5.87;;;3.40;;
6517;SDS011;3292;48.944;9.240;2024-01-06T02:19:15;5.23;;;3.20;;
6517;SDS011;3292;48.944;9.240;2024-01-06T02:21:43;9.23;;;3.23;;
6517;SDS011;3292;48.944;9.240;2024-01-06T02:24:11;4.57;;;3.23;;
6517;SDS011;3292;48.944;9.240;2024-01-06T02:26:38;4.83;;;3.23;;
6517;SDS011;3292;48.944;9.240;2024-01-06T02:29:05;5.30;;;3.33;;
6517;SDS011;3292;48.944;9.240;2024-01-06T02:31:32;4.60;;;3.43;;
6517;SDS011;3292;48.944;9.240;2024-01-06T02:33:58;5.50;;;3.50;;
6517;SDS011;3292;48.944;9.240;2024-01-06T02:36:25;4.60;;;3.03;;
6517;SDS011;3292;48.944;9.240;2024-01-06T02:38:52;5.17;;;3.50;;
6517;SDS011;3292;48.944;9.240;2024-01-06T02:41:20;5.40;;;3.33;;
6517;SDS011;3292;48.944;9.240;2024-01-06T02:43:47;5.73;;;3.47;;
6517;SDS011;3292;48.944;9.240;2024-01-06T02:46:15;4.93;;;3.20;;
6517;SDS011;3292;48.944;9.240;2024-01-06T02:48:41;4.07;;;3.50;;
6517;SDS011;3292;48.944;9.240;2024-01-06T02:51:08;5.47;;;3.73;;
6517;SDS011;3292;48.944;9.240;2024-01-06T02:53:37;6.10;;;3.47;;
6517;SDS011;3292;48.944;9.240;2024-01-06T02:56:04;4.43;;;3.17;;
6517;SDS011;3292;48.944;9.240;2024-01-06T02:58:37;5.97;;;2.93;;
6517;SDS011;3292;48.944;9.240;2024-01-06T03:01:03;5.60;;;3.03;;
6517;SDS011;3292;48.944;9.240;2024-01-06T03:03:30;4.53;;;3.20;;
6517;SDS011;3292;48.944;9.240;2024-01-06T03:05:57;7.63;;;3.50;;
6517;SDS011;3292;48.944;9.240;2024-01-06T03:08:25;4.83;;;3.10;;
6517;SDS011;3292;48.944;9.240;2024-01-06T03:10:51;7.10;;;3.50;;
6517;SDS011;3292;48.944;9.240;2024-01-06T03:13:18;6.23;;;3.60;;
6517;SDS011;3292;48.944;9.240;2024-01-06T03:15:46;8.10;;;3.40;;
6517;SDS011;3292;48.944;9.240;2024-01-06T03:18:13;5.77;;;3.20;;
6517;SDS011;3292;48.944;9.240;2024-01-06T03:20:40;5.87;;;3.10;;
6517;SDS011;3292;48.944;9.240;2024-01-06T03:23:07;7.57;;;3.43;;
6517;SDS011;3292;48.944;9.240;2024-01-06T03:25:34;6.50;;;3.87;;
6517;SDS011;3292;48.944;9.240;2024-01-06T03:28:00;5.10;;;3.70;;
6517;SDS011;3292;48.944;9.240;2024-01-06T03:30:27;7.13;;;3.90;;
6517;SDS011;3292;48.944;9.240;2024-01-06T03:32:55;5.30;;;3.30;;
6517;SDS011;3292;48.944;9.240;2024-01-06T03:35:22;6.97;;;2.90;;
6517;SDS011;3292;48.944;9.240;2024-01-06T03:37:49;5.40;;;3.00;;
6517;SDS011;3292;48.944;9.240;2024-01-06T03:40:16;5.13;;;3.00;;
6517;SDS011;3292;48.944;9.240;2024-01-06T03:42:42;6.00;;;2.80;;
6517;SDS011;3292;48.944;9.240;2024-01-06T03:45:09;5.07;;;3.30;;
6517;SDS011;3292;48.944;9.240;2024-01-06T03:47:36;9.73;;;3.53;;
6517;SDS011;3292;48.944;9.240;2024-01-06T03:50:04;4.83;;;2.97;;
6517;SDS011;3292;48.944;9.240;2024-01-06T03:52:31;6.30;;;3.50;;
6517;SDS011;3292;48.944;9.240;2024-01-06T03:54:58;4.33;;;3.03;;
6517;SDS011;3292;48.944;9.240;2024-01-06T03:57:25;5.03;;;2.90;;
6517;SDS011;3292;48.944;9.240;2024-01-06T03:59:52;4.57;;;2.90;;
6517;SDS011;3292;48.944;9.240;2024-01-06T04:02:19;7.03;;;2.93;;
6517;SDS011;3292;48.944;9.240;2024-01-06T04:04:45;7.60;;;3.40;;
6517;SDS011;3292;48.944;9.240;2024-01-06T04:07:13;4.40;;;2.97;;
6517;SDS011;3292;48.944;9.240;2024-01-06T04:09:41;4.20;;;3.60;;
6517;SDS011;3292;48.944;9.240;2024-01-06T04:12:08;4.83;;;3.13;;
6517;SDS011;3292;48.944;9.240;2024-01-06T04:14:35;6.07;;;3.43;;
6517;SDS011;3292;48.944;9.240;2024-01-06T04:17:02;3.90;;;3.33;;
6517;SDS011;3292;48.944;9.240;2024-01-06T04:19:29;3.90;;;3.27;;
6517;SDS011;3292;48.944;9.240;2024-01-06T04:21:56;5.60;;;3.53;;
6517;SDS011;3292;48.944;9.240;2024-01-06T04:24:24;6.13;;;3.50;;
6517;SDS011;3292;48.944;9.240;2024-01-06T04:26:51;5.93;;;4.00;;
6517;SDS011;3292;48.944;9.240;2024-01-06T04:29:18;7.50;;;3.77;;
6517;SDS011;3292;48.944;9.240;2024-01-06T04:31:44;8.07;;;4.83;;
6517;SDS011;3292;48.944;9.240;2024-01-06T04:34:11;9.20;;;4.43;;
6517;SDS011;3292;48.944;9.240;2024-01-06T04:36:38;7.83;;;4.27;;
6517;SDS011;3292;48.944;9.240;2024-01-06T04:39:05;9.07;;;4.17;;
6517;SDS011;3292;48.944;9.240;2024-01-06T04:41:33;8.97;;;3.93;;
6517;SDS011;3292;48.944;9.240;2024-01-06T04:44:00;5.47;;;3.87;;
6517;SDS011;3292;48.944;9.240;2024-01-06T04:46:27;6.20;;;4.30;;
6517;SDS011;3292;48.944;9.240;2024-01-06T04:48:55;10.00;;;3.77;;
6517;SDS011;3292;48.944;9.240;2024-01-06T04:51:22;6.97;;;3.97;;
6517;SDS011;3292;48.944;9.240;2024-01-06T04:53:49;6.70;;;4.40;;
6517;SDS011;3292;48.944;9.240;2024-01-06T04:56:16;5.90;;;4.53;;
6517;SDS011;3292;48.944;9.240;2024-01-06T04:58:44;8.60;;;5.07;;
6517;SDS011;3292;48.944;9.240;2024-01-06T05:01:10;8.90;;;4.93;;
6517;SDS011;3292;48.944;9.240;2024-01-06T05:03:37;6.83;;;4.33;;
6517;SDS011;3292;48.944;9.240;2024-01-06T05:06:04;6.67;;;4.27;;
6517;SDS011;3292;48.944;9.240;2024-01-06T05:08:31;7.53;;;4.83;;
6517;SDS011;3292;48.944;9.240;2024-01-06T05:10:58;8.83;;;3.70;;
6517;SDS011;3292;48.944;9.240;2024-01-06T05:13:26;6.90;;;3.60;;
6517;SDS011;3292;48.944;9.240;2024-01-06T05:15:54;7.77;;;3.83;;
6517;SDS011;3292;48.944;9.240;2024-01-06T05:18:21;6.33;;;3.60;;
6517;SDS011;3292;48.944;9.240;2024-01-06T05:20:48;5.87;;;4.20;;
6517;SDS011;3292;48.944;9.240;2024-01-06T05:23:14;7.37;;;3.60;;
6517;SDS011;3292;48.944;9.240;2024-01-06T05:25:42;5.53;;;4.27;;
6517;SDS011;3292;48.944;9.240;2024-01-06T05:28:08;6.93;;;4.27;;
6517;SDS011;3292;48.944;9.240;2024-01-06T05:30:35;4.90;;;4.00;;
6517;SDS011;3292;48.944;9.240;2024-01-06T05:33:04;6.57;;;3.40;;
6517;SDS011;3292;48.944;9.240;2024-01-06T05:35:31;7.43;;;3.50;;
6517;SDS011;3292;48.944;9.240;2024-01-06T05:37:57;6.00;;;3.53;;
6517;SDS011;3292;48.944;9.240;2024-01-06T05:40:24;7.47;;;4.00;;
6517;SDS011;3292;48.944;9.240;2024-01-06T05:42:51;5.60;;;3.80;;
6517;SDS011;3292;48.944;9.240;2024-01-06T05:45:20;7.23;;;3.60;;
6517;SDS011;3292;48.944;9.240;2024-01-06T05:47:47;7.87;;;3.73;;
6517;SDS011;3292;48.944;9.240;2024-01-06T05:50:16;7.47;;;4.37;;
6517;SDS011;3292;48.944;9.240;2024-01-06T05:52:43;5.00;;;3.70;;
6517;SDS011;3292;48.944;9.240;2024-01-06T05:55:12;7.53;;;3.20;;
6517;SDS011;3292;48.944;9.240;2024-01-06T05:57:39;9.07;;;3.63;;
6517;SDS011;3292;48.944;9.240;2024-01-06T06:00:07;5.37;;;3.60;;
6517;SDS011;3292;48.944;9.240;2024-01-06T06:02:35;7.03;;;3.40;;
6517;SDS011;3292;48.944;9.240;2024-01-06T06:05:04;8.80;;;3.50;;
6517;SDS011;3292;48.944;9.240;2024-01-06T06:07:32;5.87;;;3.63;;
6517;SDS011;3292;48.944;9.240;2024-01-06T06:10:04;5.77;;;3.50;;
6517;SDS011;3292;48.944;9.240;2024-01-06T06:12:32;10.43;;;3.83;;
6517;SDS011;3292;48.944;9.240;2024-01-06T06:14:59;7.80;;;3.50;;
6517;SDS011;3292;48.944;9.240;2024-01-06T06:17:26;7.23;;;3.63;;
6517;SDS011;3292;48.944;9.240;2024-01-06T06:19:52;5.60;;;3.30;;
6517;SDS011;3292;48.944;9.240;2024-01-06T06:22:19;7.33;;;3.63;;
6517;SDS011;3292;48.944;9.240;2024-01-06T06:24:48;4.43;;;3.73;;
6517;SDS011;3292;48.944;9.240;2024-01-06T06:27:15;4.83;;;3.50;;
6517;SDS011;3292;48.944;9.240;2024-01-06T06:29:41;6.60;;;4.00;;
6517;SDS011;3292;48.944;9.240;2024-01-06T06:32:08;6.53;;;3.30;;
6517;SDS011;3292;48.944;9.240;2024-01-06T06:34:35;6.73;;;3.53;;
6517;SDS011;3292;48.944;9.240;2024-01-06T06:37:02;5.77;;;3.57;;
6517;SDS011;3292;48.944;9.240;2024-01-06T06:39:29;5.97;;;3.70;;
6517;SDS011;3292;48.944;9.240;2024-01-06T06:41:58;7.20;;;3.80;;
6517;SDS011;3292;48.944;9.240;2024-01-06T06:44:25;9.53;;;4.10;;
6517;SDS011;3292;48.944;9.240;2024-01-06T06:46:52;5.17;;;3.67;;
6517;SDS011;3292;48.944;9.240;2024-01-06T06:49:18;4.77;;;3.60;;
6517;SDS011;3292;48.944;9.240;2024-01-06T06:51:45;7.10;;;4.13;;
6517;SDS011;3292;48.944;9.240;2024-01-06T06:54:13;8.77;;;4.23;;
6517;SDS011;3292;48.944;9.240;2024-01-06T06:56:40;6.07;;;3.83;;
6517;SDS011;3292;48.944;9.240;2024-01-06T06:59:08;6.47;;;3.80;;
6517;SDS011;3292;48.944;9.240;2024-01-06T07:01:35;5.13;;;3.70;;
6517;SDS011;3292;48.944;9.240;2024-01-06T07:04:02;7.60;;;3.50;;
6517;SDS011;3292;48.944;9.240;2024-01-06T07:06:29;5.27;;;3.80;;
6517;SDS011;3292;48.944;9.240;2024-01-06T07:08:56;7.97;;;3.53;;
6517;SDS011;3292;48.944;9.240;2024-01-06T07:11:23;7.67;;;3.33;;
6517;SDS011;3292;48.944;9.240;2024-01-06T07:13:50;7.77;;;4.20;;
6517;SDS011;3292;48.944;9.240;2024-01-06T07:16:18;4.93;;;3.90;;
6517;SDS011;3292;48.944;9.240;2024-01-06T07:18:45;5.70;;;3.60;;
6517;SDS011;3292;48.944;9.240;2024-01-06T07:21:12;8.07;;;4.27;;
6517;SDS011;3292;48.944;9.240;2024-01-06T07:23:39;4.13;;;3.13;;
6517;SDS011;3292;48.944;9.240;2024-01-06T07:26:07;4.93;;;3.67;;
6517;SDS011;3292;48.944;9.240;2024-01-06T07:28:34;4.77;;;3.60;;
6517;SDS011;3292;48.944;9.240;2024-01-06T07:31:01;5.13;;;3.80;;
6517;SDS011;3292;48.944;9.240;2024-01-06T07:33:30;4.60;;;3.83;;
6517;SDS011;3292;48.944;9.240;2024-01-06T07:35:57;6.00;;;3.70;;
6517;SDS011;3292;48.944;9.240;2024-01-06T07:38:24;4.90;;;3.93;;
6517;SDS011;3292;48.944;9.240;2024-01-06T07:40:51;9.63;;;5.67;;
6517;SDS011;3292;48.944;9.240;2024-01-06T07:43:19;5.87;;;4.73;;
6517;SDS011;3292;48.944;9.240;2024-01-06T07:45:46;7.27;;;5.33;;
6517;SDS011;3292;48.944;9.240;2024-01-06T07:48:13;6.30;;;5.50;;
6517;SDS011;3292;48.944;9.240;2024-01-06T07:50:41;7.23;;;5.43;;
6517;SDS011;3292;48.944;9.240;2024-01-06T07:53:08;6.80;;;4.07;;
6517;SDS011;3292;48.944;9.240;2024-01-06T07:55:35;7.07;;;4.00;;
6517;SDS011;3292;48.944;9.240;2024-01-06T07:58:02;5.57;;;4.37;;
6517;SDS011;3292;48.944;9.240;2024-01-06T08:00:29;7.70;;;4.80;;
6517;SDS011;3292;48.944;9.240;2024-01-06T08:02:56;6.67;;;4.33;;
6517;SDS011;3292;48.944;9.240;2024-01-06T08:05:22;4.73;;;4.00;;
6517;SDS011;3292;48.944;9.240;2024-01-06T08:07:51;6.67;;;4.27;;
6517;SDS011;3292;48.944;9.240;2024-01-06T08:10:18;5.80;;;4.27;;
6517;SDS011;3292;48.944;9.240;2024-01-06T08:12:46;6.37;;;3.73;;
6517;SDS011;3292;48.944;9.240;2024-01-06T08:15:13;5.40;;;3.97;;
6517;SDS011;3292;48.944;9.240;2024-01-06T08:17:40;4.43;;;3.87;;
6517;SDS011;3292;48.944;9.240;2024-01-06T08:20:08;7.27;;;3.83;;
6517;SDS011;3292;48.944;9.240;2024-01-06T08:22:35;5.10;;;3.93;;
6517;SDS011;3292;48.944;9.240;2024-01-06T08:25:04;5.87;;;3.87;;
6517;SDS011;3292;48.944;9.240;2024-01-06T08:27:32;5.90;;;3.80;;
6517;SDS011;3292;48.944;9.240;2024-01-06T08:29:59;5.10;;;3.87;;
6517;SDS011;3292;48.944;9.240;2024-01-06T08:32:26;6.63;;;4.17;;
6517;SDS011;3292;48.944;9.240;2024-01-06T08:34:53;5.73;;;3.73;;
6517;SDS011;3292;48.944;9.240;2024-01-06T08:37:20;4.30;;;3.90;;
6517;SDS011;3292;48.944;9.240;2024-01-06T08:39:46;4.63;;;4.07;;
6517;SDS011;3292;48.944;9.240;2024-01-06T08:42:15;5.53;;;4.17;;
6517;SDS011;3292;48.944;9.240;2024-01-06T08:44:41;5.07;;;3.90;;
6517;SDS011;3292;48.944;9.240;2024-01-06T08:47:09;7.37;;;3.87;;
6517;SDS011;3292;48.944;9.240;2024-01-06T08:49:35;4.40;;;3.97;;
6517;SDS011;3292;48.944;9.240;2024-01-06T08:52:02;7.33;;;4.33;;
6517;SDS011;3292;48.944;9.240;2024-01-06T08:54:30;7.53;;;4.73;;
6517;SDS011;3292;48.944;9.240;2024-01-06T08:56:57;6.47;;;4.50;;
6517;SDS011;3292;48.944;9.240;2024-01-06T08:59:25;4.73;;;4.33;;
6517;SDS011;3292;48.944;9.240;2024-01-06T09:01:52;5.63;;;4.83;;
6517;SDS011;3292;48.944;9.240;2024-01-06T09:04:19;6.83;;;4.67;;
6517;SDS011;3292;48.944;9.240;2024-01-06T09:06:45;5.90;;;4.60;;
6517;SDS011;3292;48.944;9.240;2024-01-06T09:09:13;5.60;;;5.10;;
6517;SDS011;3292;48.944;9.240;2024-01-06T09:11:40;7.20;;;5.40;;
6517;SDS011;3292;48.944;9.240;2024-01-06T09:14:07;6.67;;;5.90;;
6517;SDS011;3292;48.944;9.240;2024-01-06T09:16:37;6.03;;;5.43;;
6517;SDS011;3292;48.944;9.240;2024-01-06T09:19:03;12.17;;;7.30;;
6517;SDS011;3292;48.944;9.240;2024-01-06T09:21:31;8.23;;;6.53;;
6517;SDS011;3292;48.944;9.240;2024-01-06T09:23:57;7.83;;;5.80;;
6517;SDS011;3292;48.944;9.240;2024-01-06T09:26:25;6.87;;;6.17;;
6517;SDS011;3292;48.944;9.240;2024-01-06T09:28:52;7.43;;;5.70;;
6517;SDS011;3292;48.944;9.240;2024-01-06T09:31:19;8.47;;;6.17;;
6517;SDS011;3292;48.944;9.240;2024-01-06T09:33:47;6.23;;;5.63;;
6517;SDS011;3292;48.944;9.240;2024-01-06T09:36:14;6.70;;;6.00;;
6517;SDS011;3292;48.944;9.240;2024-01-06T09:38:41;7.17;;;6.03;;
6517;SDS011;3292;48.944;9.240;2024-01-06T09:41:09;7.40;;;5.77;;
6517;SDS011;3292;48.944;9.240;2024-01-06T09:43:36;6.80;;;5.57;;
6517;SDS011;3292;48.944;9.240;2024-01-06T09:46:05;7.77;;;5.73;;
6517;SDS011;3292;48.944;9.240;2024-01-06T09:48:35;6.13;;;4.90;;
6517;SDS011;3292;48.944;9.240;2024-01-06T09:51:09;6.67;;;5.80;;
6517;SDS011;3292;48.944;9.240;2024-01-06T09:53:39;7.20;;;5.43;;
6517;SDS011;3292;48.944;9.240;2024-01-06T09:56:11;7.53;;;6.10;;
6517;SDS011;3292;48.944;9.240;2024-01-06T09:58:39;8.40;;;5.70;;
6517;SDS011;3292;48.944;9.240;2024-01-06T10:01:07;7.20;;;5.53;;
6517;SDS011;3292;48.944;9.240;2024-01-06T10:03:34;6.27;;;5.67;;
6517;SDS011;3292;48.944;9.240;2024-01-06T10:06:02;8.40;;;5.77;;
6517;SDS011;3292;48.944;9.240;2024-01-06T10:08:30;6.47;;;5.87;;
6517;SDS011;3292;48.944;9.240;2024-01-06T10:10:58;7.07;;;5.37;;
6517;SDS011;3292;48.944;9.240;2024-01-06T10:13:26;7.50;;;5.63;;
6517;SDS011;3292;48.944;9.240;2024-01-06T10:15:53;7.20;;;5.03;;
6517;SDS011;3292;48.944;9.240;2024-01-06T10:18:20;6.67;;;5.70;;
6517;SDS011;3292;48.944;9.240;2024-01-06T10:20:47;7.77;;;5.37;;
6517;SDS011;3292;48.944;9.240;2024-01-06T10:23:16;5.97;;;5.17;;
6517;SDS011;3292;48.944;9.240;2024-01-06T10:25:44;8.13;;;5.67;;
6517;SDS011;3292;48.944;9.240;2024-01-06T10:28:11;7.20;;;5.03;;
6517;SDS011;3292;48.944;9.240;2024-01-06T10:30:39;5.60;;;5.10;;
6517;SDS011;3292;48.944;9.240;2024-01-06T10:33:08;5.57;;;5.07;;
6517;SDS011;3292;48.944;9.240;2024-01-06T10:35:35;8.70;;;5.93;;
6517;SDS011;3292;48.944;9.240;2024-01-06T10:38:02;6.13;;;5.27;;
6517;SDS011;3292;48.944;9.240;2024-01-06T10:40:30;5.87;;;5.27;;
6517;SDS011;3292;48.944;9.240;2024-01-06T10:42:58;6.00;;;5.13;;
6517;SDS011;3292;48.944;9.240;2024-01-06T10:45:26;5.63;;;5.13;;
6517;SDS011;3292;48.944;9.240;2024-01-06T10:47:55;6.83;;;5.77;;
6517;SDS011;3292;48.944;9.240;2024-01-06T10:50:23;6.67;;;5.43;;
6517;SDS011;3292;48.944;9.240;2024-01-06T10:52:50;6.40;;;5.33;;
6517;SDS011;3292;48.944;9.240;2024-01-06T10:55:19;6.03;;;5.43;;
6517;SDS011;3292;48.944;9.240;2024-01-06T10:57:47;7.27;;;5.90;;
6517;SDS011;3292;48.944;9.240;2024-01-06T11:00:18;7.20;;;5.57;;
6517;SDS011;3292;48.944;9.240;2024-01-06T11:02:44;7.03;;;5.50;;
6517;SDS011;3292;48.944;9.240;2024-01-06T11:05:13;5.83;;;5.27;;
6517;SDS011;3292;48.944;9.240;2024-01-06T11:07:41;6.37;;;5.23;;
6517;SDS011;3292;48.944;9.240;2024-01-06T11:10:10;6.17;;;5.57;;
6517;SDS011;3292;48.944;9.240;2024-01-06T11:12:41;5.63;;;5.13;;
6517;SDS011;3292;48.944;9.240;2024-01-06T11:15:08;6.53;;;5.30;;
6517;SDS011;3292;48.944;9.240;2024-01-06T11:17:52;7.00;;;5.87;;
6517;SDS011;3292;48.944;9.240;2024-01-06T11:20:20;6.03;;;5.47;;
6517;SDS011;3292;48.944;9.240;2024-01-06T11:22:48;7.27;;;6.27;;
6517;SDS011;3292;48.944;9.240;2024-01-06T11:25:15;6.50;;;5.87;;
6517;SDS011;3292;48.944;9.240;2024-01-06T11:27:43;7.30;;;6.60;;
6517;SDS011;3292;48.944;9.240;2024-01-06T11:30:18;6.50;;;5.90;;
6517;SDS011;3292;48.944;9.240;2024-01-06T11:32:46;8.00;;;6.43;;
6517;SDS011;3292;48.944;9.240;2024-01-06T11:35:15;6.70;;;5.97;;
6517;SDS011;3292;48.944;9.240;2024-01-06T11:37:53;6.47;;;5.87;;
6517;SDS011;3292;48.944;9.240;2024-01-06T11:40:23;7.30;;;6.17;;
6517;SDS011;3292;48.944;9.240;2024-01-06T11:42:56;8.87;;;6.93;;
6517;SDS011;3292;48.944;9.240;2024-01-06T11:45:24;8.83;;;7.07;;
6517;SDS011;3292;48.944;9.240;2024-01-06T11:47:56;9.50;;;7.20;;
6517;SDS011;3292;48.944;9.240;2024-01-06T11:50:25;10.23;;;6.77;;
6517;SDS011;3292;48.944;9.240;2024-01-06T11:52:52;8.30;;;6.70;;
6517;SDS011;3292;48.944;9.240;2024-01-06T11:55:19;7.67;;;6.40;;
6517;SDS011;3292;48.944;9.240;2024-01-06T11:57:46;9.73;;;6.73;;
6517;SDS011;3292;48.944;9.240;2024-01-06T12:00:14;7.90;;;6.67;;
6517;SDS011;3292;48.944;9.240;2024-01-06T12:02:42;7.67;;;6.97;;
6517;SDS011;3292;48.944;9.240;2024-01-06T12:05:12;8.63;;;6.63;;
6517;SDS011;3292;48.944;9.240;2024-01-06T12:07:41;9.37;;;6.57;;
6517;SDS011;3292;48.944;9.240;2024-01-06T12:10:08;8.03;;;7.20;;
6517;SDS011;3292;48.944;9.240;2024-01-06T12:12:36;9.23;;;7.00;;
6517;SDS011;3292;48.944;9.240;2024-01-06T12:15:03;10.10;;;6.90;;
6517;SDS011;3292;48.944;9.240;2024-01-06T12:17:33;7.13;;;6.00;;
6517;SDS011;3292;48.944;9.240;2024-01-06T12:20:00;7.60;;;6.70;;
6517;SDS011;3292;48.944;9.240;2024-01-06T12:22:27;6.63;;;5.97;;
6517;SDS011;3292;48.944;9.240;2024-01-06T12:24:55;8.23;;;6.60;;
6517;SDS011;3292;48.944;9.240;2024-01-06T12:27:25;8.20;;;6.13;;
6517;SDS011;3292;48.944;9.240;2024-01-06T12:29:52;6.63;;;5.67;;
6517;SDS011;3292;48.944;9.240;2024-01-06T12:32:19;6.47;;;5.80;;
6517;SDS011;3292;48.944;9.240;2024-01-06T12:34:46;16.30;;;8.80;;
6517;SDS011;3292;48.944;9.240;2024-01-06T12:37:13;7.00;;;6.30;;
6517;SDS011;3292;48.944;9.240;2024-01-06T12:39:40;6.90;;;5.67;;
6517;SDS011;3292;48.944;9.240;2024-01-06T12:42:09;7.20;;;5.20;;
6517;SDS011;3292;48.944;9.240;2024-01-06T12:44:36;5.77;;;5.03;;
6517;SDS011;3292;48.944;9.240;2024-01-06T12:47:04;6.50;;;5.57;;
6517;SDS011;3292;48.944;9.240;2024-01-06T12:49:31;7.40;;;6.70;;
6517;SDS011;3292;48.944;9.240;2024-01-06T12:51:58;6.37;;;5.87;;
6517;SDS011;3292;48.944;9.240;2024-01-06T12:54:25;9.07;;;6.17;;
6517;SDS011;3292;48.944;9.240;2024-01-06T12:56:52;6.13;;;5.57;;
6517;SDS011;3292;48.944;9.240;2024-01-06T12:59:20;9.53;;;6.60;;
6517;SDS011;3292;48.944;9.240;2024-01-06T13:01:47;8.23;;;6.33;;
6517;SDS011;3292;48.944;9.240;2024-01-06T13:04:14;6.53;;;5.90;;
6517;SDS011;3292;48.944;9.240;2024-01-06T13:06:41;6.53;;;5.70;;
6517;SDS011;3292;48.944;9.240;2024-01-06T13:09:08;6.27;;;5.50;;
6517;SDS011;3292;48.944;9.240;2024-01-06T13:11:37;6.70;;;5.93;;
6517;SDS011;3292;48.944;9.240;2024-01-06T13:14:04;7.93;;;6.53;;
6517;SDS011;3292;48.944;9.240;2024-01-06T13:16:32;6.60;;;6.00;;
6517;SDS011;3292;48.944;9.240;2024-01-06T13:19:00;13.07;;;8.97;;
6517;SDS011;3292;48.944;9.240;2024-01-06T13:21:27;7.60;;;6.80;;
6517;SDS011;3292;48.944;9.240;2024-01-06T13:23:54;5.87;;;5.27;;
6517;SDS011;3292;48.944;9.240;2024-01-06T13:26:26;7.10;;;6.40;;
6517;SDS011;3292;48.944;9.240;2024-01-06T13:28:53;6.43;;;5.83;;
6517;SDS011;3292;48.944;9.240;2024-01-06T13:31:20;6.47;;;5.87;;
6517;SDS011;3292;48.944;9.240;2024-01-06T13:33:50;8.53;;;6.23;;
6517;SDS011;3292;48.944;9.240;2024-01-06T13:36:18;7.03;;;6.40;;
6517;SDS011;3292;48.944;9.240;2024-01-06T13:38:45;7.00;;;6.40;;
6517;SDS011;3292;48.944;9.240;2024-01-06T13:41:13;6.53;;;5.87;;
6517;SDS011;3292;48.944;9.240;2024-01-06T13:43:40;7.07;;;5.83;;
6517;SDS011;3292;48.944;9.240;2024-01-06T13:46:07;7.13;;;6.20;;
6517;SDS011;3292;48.944;9.240;2024-01-06T13:48:34;8.93;;;6.50;;
6517;SDS011;3292;48.944;9.240;2024-01-06T13:51:02;7.07;;;6.37;;
6517;SDS011;3292;48.944;9.240;2024-01-06T13:53:29;7.60;;;6.90;;
6517;SDS011;3292;48.944;9.240;2024-01-06T13:55:56;7.50;;;6.70;;
6517;SDS011;3292;48.944;9.240;2024-01-06T13:58:23;8.00;;;7.03;;
6517;SDS011;3292;48.944;9.240;2024-01-06T14:00:49;7.30;;;6.60;;
6517;SDS011;3292;48.944;9.240;2024-01-06T14:03:18;7.00;;;6.17;;
6517;SDS011;3292;48.944;9.240;2024-01-06T14:05:44;7.80;;;7.00;;
6517;SDS011;3292;48.944;9.240;2024-01-06T14:08:13;8.23;;;7.10;;
6517;SDS011;3292;48.944;9.240;2024-01-06T14:10:40;7.53;;;6.73;;
6517;SDS011;3292;48.944;9.240;2024-01-06T14:13:06;8.40;;;7.20;;
6517;SDS011;3292;48.944;9.240;2024-01-06T14:15:34;9.13;;;7.93;;
6517;SDS011;3292;48.944;9.240;2024-01-06T14:18:00;8.43;;;7.40;;
6517;SDS011;3292;48.944;9.240;2024-01-06T14:20:27;10.10;;;7.93;;
6517;SDS011;3292;48.944;9.240;2024-01-06T14:22:54;8.53;;;7.63;;
6517;SDS011;3292;48.944;9.240;2024-01-06T14:25:23;9.00;;;8.10;;
6517;SDS011;3292;48.944;9.240;2024-01-06T14:27:50;8.27;;;7.47;;
6517;SDS011;3292;48.944;9.240;2024-01-06T14:30:16;7.30;;;6.60;;
6517;SDS011;3292;48.944;9.240;2024-01-06T14:32:45;9.17;;;6.93;;
6517;SDS011;3292;48.944;9.240;2024-01-06T14:35:11;7.50;;;6.80;;
6517;SDS011;3292;48.944;9.240;2024-01-06T14:37:39;9.40;;;7.13;;
6517;SDS011;3292;48.944;9.240;2024-01-06T14:40:06;7.83;;;7.13;;
6517;SDS011;3292;48.944;9.240;2024-01-06T21:49:35;25.30;;;20.17;;
6517;SDS011;3292;48.944;9.240;2024-01-06T21:52:01;27.77;;;20.83;;
6517;SDS011;3292;48.944;9.240;2024-01-06T21:54:29;27.10;;;20.93;;
6517;SDS011;3292;48.944;9.240;2024-01-06T21:56:56;28.90;;;20.97;;
6517;SDS011;3292;48.944;9.240;2024-01-06T21:59:23;29.20;;;22.37;;
6517;SDS011;3292;48.944;9.240;2024-01-06T22:01:50;32.23;;;22.93;;
6517;SDS011;3292;48.944;9.240;2024-01-06T22:04:17;28.23;;;20.90;;
6517;SDS011;3292;48.944;9.240;2024-01-06T22:06:45;27.20;;;20.77;;
6517;SDS011;3292;48.944;9.240;2024-01-06T22:09:12;27.00;;;22.07;;
6517;SDS011;3292;48.944;9.240;2024-01-06T22:11:39;31.50;;;21.50;;
6517;SDS011;3292;48.944;9.240;2024-01-06T22:14:07;29.40;;;19.87;;
6517;SDS011;3292;48.944;9.240;2024-01-06T22:16:33;26.67;;;19.53;;
6517;SDS011;3292;48.944;9.240;2024-01-06T22:19:00;25.20;;;19.80;;
6517;SDS011;3292;48.944;9.240;2024-01-06T22:21:28;28.80;;;20.93;;